createdAt,value
2018-07-17T00:00:53.167Z,99.90
2018-07-17T00:03:22.421Z,99.90
2018-07-17T00:05:51.627Z,99.90
2018-07-17T00:08:20.802Z,99.90
2018-07-17T00:10:50.017Z,99.90
2018-07-17T00:13:19.172Z,99.90
2018-07-17T00:15:48.251Z,99.90
2018-07-17T00:18:17.372Z,99.90
2018-07-17T00:20:46.816Z,99.90
2018-07-17T00:23:15.915Z,99.90
2018-07-17T00:25:45.162Z,99.90
2018-07-17T00:28:14.301Z,99.90
2018-07-17T00:30:43.459Z,99.90
2018-07-17T00:33:12.653Z,99.90
2018-07-17T00:35:41.839Z,99.90
2018-07-17T00:38:11.327Z,99.90
2018-07-17T00:40:40.459Z,99.90
2018-07-17T00:43:09.591Z,99.90
2018-07-17T00:45:38.824Z,99.90
2018-07-17T00:48:08.104Z,99.90
2018-07-17T00:50:37.345Z,99.90
2018-07-17T00:53:06.567Z,99.90
2018-07-17T00:55:35.676Z,99.90
2018-07-17T00:58:04.811Z,99.90
2018-07-17T01:00:39.443Z,99.90
2018-07-17T01:03:13.967Z,99.90
2018-07-17T01:05:48.585Z,99.90
2018-07-17T01:08:23.188Z,99.90
2018-07-17T01:10:57.579Z,99.90
2018-07-17T01:13:37.247Z,99.90
2018-07-17T01:16:06.473Z,99.90
2018-07-17T01:18:35.569Z,99.90
2018-07-17T01:21:04.713Z,99.90
2018-07-17T01:23:33.853Z,99.90
2018-07-17T01:26:03.069Z,99.90
2018-07-17T01:28:32.163Z,99.90
2018-07-17T01:31:01.292Z,99.90
2018-07-17T01:33:30.475Z,99.90
2018-07-17T01:35:59.626Z,99.90
2018-07-17T01:38:28.858Z,99.90
2018-07-17T01:40:57.955Z,99.90
2018-07-17T01:43:27.073Z,99.90
2018-07-17T01:45:56.276Z,99.90
2018-07-17T01:48:25.409Z,99.90
2018-07-17T01:50:54.578Z,99.90
2018-07-17T01:53:23.703Z,99.90
2018-07-17T01:55:52.808Z,99.90
2018-07-17T01:58:21.926Z,99.90
2018-07-17T02:00:51.018Z,99.90
2018-07-17T02:03:20.156Z,99.90
2018-07-17T02:05:50.012Z,99.90
2018-07-17T02:08:19.140Z,99.90
2018-07-17T02:10:48.268Z,99.90
2018-07-17T02:13:17.399Z,99.90
2018-07-17T02:15:46.527Z,99.90
2018-07-17T02:18:15.711Z,99.90
2018-07-17T02:20:44.831Z,99.90
2018-07-17T02:23:13.961Z,99.90
2018-07-17T02:25:43.194Z,99.90
2018-07-17T02:30:41.072Z,99.90
2018-07-17T02:33:10.206Z,99.90
2018-07-17T02:35:39.339Z,99.90
2018-07-17T02:38:08.441Z,99.90
2018-07-17T02:40:37.543Z,99.90
2018-07-17T02:43:06.795Z,99.90
2018-07-17T02:45:35.960Z,99.90
2018-07-17T02:48:05.257Z,99.90
2018-07-17T02:50:34.376Z,99.90
2018-07-17T02:53:06.460Z,99.90
2018-07-17T02:55:35.614Z,99.90
2018-07-17T02:58:04.764Z,99.90
2018-07-17T03:00:33.900Z,99.90
2018-07-17T03:03:03.967Z,99.90
2018-07-17T03:05:33.126Z,99.90
2018-07-17T03:08:02.324Z,99.90
2018-07-17T03:10:31.524Z,99.90
2018-07-17T03:15:29.401Z,99.90
2018-07-17T03:17:58.526Z,99.90
2018-07-17T03:20:27.685Z,99.90
2018-07-17T03:22:57.462Z,99.90
2018-07-17T03:25:26.621Z,99.90
2018-07-17T03:27:55.757Z,99.90
2018-07-17T03:30:24.958Z,99.90
2018-07-17T03:32:54.164Z,99.90
2018-07-17T03:35:23.389Z,99.90
2018-07-17T03:37:52.545Z,99.90
2018-07-17T03:40:21.643Z,99.90
2018-07-17T03:42:50.762Z,99.90
2018-07-17T03:45:19.936Z,99.90
2018-07-17T03:47:49.140Z,99.90
2018-07-17T03:50:18.288Z,99.90
2018-07-17T03:52:47.984Z,99.90
2018-07-17T03:55:17.179Z,99.90
2018-07-17T04:00:15.191Z,99.90
2018-07-17T04:02:44.466Z,99.90
2018-07-17T04:05:13.516Z,99.90
2018-07-17T04:07:42.597Z,99.90
2018-07-17T04:10:11.935Z,99.90
2018-07-17T04:12:41.108Z,99.90
2018-07-17T04:15:10.268Z,99.90
2018-07-17T04:17:39.512Z,99.90
2018-07-17T04:20:08.710Z,99.90
2018-07-17T04:22:37.814Z,99.90
2018-07-17T04:25:06.993Z,99.90
2018-07-17T04:27:36.107Z,99.90
2018-07-17T04:30:05.324Z,99.90
2018-07-17T04:32:34.505Z,99.90
2018-07-17T04:35:03.681Z,99.90
2018-07-17T04:37:32.808Z,99.90
2018-07-17T04:40:01.970Z,99.90
2018-07-17T04:42:31.171Z,99.90
2018-07-17T04:45:00.327Z,99.90
2018-07-17T04:47:29.513Z,99.90
2018-07-17T04:49:58.747Z,99.90
2018-07-17T04:52:27.850Z,99.90
2018-07-17T04:54:57.133Z,99.90
2018-07-17T04:57:26.823Z,99.90
2018-07-17T04:59:55.997Z,99.90
2018-07-17T05:02:25.288Z,99.90
2018-07-17T05:04:54.424Z,99.90
2018-07-17T05:07:23.560Z,99.90
2018-07-17T05:09:52.710Z,99.90
2018-07-17T05:12:21.964Z,99.90
2018-07-17T05:14:51.049Z,99.90
2018-07-17T05:17:20.179Z,99.90
2018-07-17T05:19:49.324Z,99.90
2018-07-17T05:22:18.451Z,99.90
2018-07-17T05:24:47.554Z,99.90
2018-07-17T05:27:17.141Z,99.90
2018-07-17T05:29:46.225Z,99.90
2018-07-17T05:32:15.361Z,99.90
2018-07-17T05:34:44.719Z,99.90
2018-07-17T05:37:13.904Z,99.90
2018-07-17T05:39:43.248Z,99.90
2018-07-17T05:42:12.434Z,99.90
2018-07-17T05:44:41.545Z,99.90
2018-07-17T05:47:10.875Z,99.90
2018-07-17T05:49:40.040Z,99.90
2018-07-17T05:52:09.238Z,99.90
2018-07-17T05:54:38.480Z,99.90
2018-07-17T05:57:07.696Z,99.90
2018-07-17T05:59:36.932Z,99.90
2018-07-17T06:02:06.699Z,99.90
2018-07-17T06:04:35.822Z,99.90
2018-07-17T06:07:05.039Z,99.90
2018-07-17T06:09:34.138Z,99.90
2018-07-17T06:12:03.497Z,99.90
2018-07-17T06:14:32.636Z,99.90
2018-07-17T06:17:01.802Z,99.90
2018-07-17T06:19:31.122Z,99.90
2018-07-17T06:24:30.145Z,99.90
2018-07-17T06:26:59.282Z,99.90
2018-07-17T06:29:28.400Z,99.90
2018-07-17T06:31:57.526Z,99.90
2018-07-17T06:34:26.699Z,99.90
2018-07-17T06:36:55.855Z,99.90
2018-07-17T06:39:25.045Z,99.90
2018-07-17T06:41:54.160Z,99.90
2018-07-17T06:44:23.344Z,99.90
2018-07-17T06:46:52.791Z,99.90
2018-07-17T06:49:21.922Z,99.90
2018-07-17T06:51:51.055Z,99.90
2018-07-17T06:54:20.201Z,99.90
2018-07-17T06:56:49.481Z,99.90
2018-07-17T06:59:18.675Z,99.90
2018-07-17T07:01:47.892Z,99.80
2018-07-17T07:04:17.099Z,99.70
2018-07-17T07:06:46.304Z,99.70
2018-07-17T07:09:15.455Z,99.40
2018-07-17T07:11:44.663Z,99.20
2018-07-17T07:14:13.899Z,98.80
2018-07-17T07:16:43.157Z,98.30
2018-07-17T07:19:12.483Z,98.30
2018-07-17T07:21:41.664Z,97.40
2018-07-17T07:24:10.836Z,98.00
2018-07-17T07:26:40.090Z,97.80
2018-07-17T07:29:10.634Z,96.60
2018-07-17T07:31:39.816Z,96.10
2018-07-17T07:34:09.752Z,95.80
2018-07-17T07:39:09.315Z,96.00
2018-07-17T07:41:38.400Z,95.30
2018-07-17T07:44:07.694Z,95.00
2018-07-17T07:46:36.856Z,95.60
2018-07-17T07:49:06.053Z,96.00
2018-07-17T07:51:35.179Z,94.10
2018-07-17T07:54:04.433Z,94.50
2018-07-17T07:56:34.300Z,94.50
2018-07-17T07:59:03.494Z,93.80
2018-07-17T08:01:33.281Z,93.70
2018-07-17T08:06:31.277Z,93.10
2018-07-17T08:09:00.922Z,90.30
2018-07-17T08:11:30.142Z,90.60
2018-07-17T08:13:59.240Z,92.40
2018-07-17T08:16:28.456Z,91.10
2018-07-17T08:21:33.224Z,90.40
2018-07-17T08:24:02.397Z,90.00
2018-07-17T08:26:31.631Z,90.40
2018-07-17T08:29:00.988Z,88.60
2018-07-17T08:31:30.165Z,88.10
2018-07-17T08:33:59.396Z,90.00
2018-07-17T08:36:28.696Z,88.90
2018-07-17T08:38:57.862Z,89.10
2018-07-17T08:43:55.815Z,88.20
2018-07-17T08:46:24.993Z,85.20
2018-07-17T08:48:54.167Z,86.20
2018-07-17T08:51:23.422Z,87.40
2018-07-17T08:53:52.664Z,81.20
2018-07-17T08:56:21.849Z,84.00
2018-07-17T08:58:51.772Z,83.00
2018-07-17T09:01:20.989Z,79.60
2018-07-17T09:03:50.119Z,84.40
2018-07-17T09:06:19.293Z,85.40
2018-07-17T09:08:48.454Z,82.00
2018-07-17T09:11:17.707Z,78.50
2018-07-17T09:13:47.862Z,78.10
2018-07-17T09:16:17.550Z,75.10
2018-07-17T09:18:46.758Z,74.70
2018-07-17T09:21:16.005Z,78.50
2018-07-17T09:23:45.212Z,76.20
2018-07-17T09:26:15.105Z,78.40
2018-07-17T09:28:44.884Z,72.20
2018-07-17T09:31:14.156Z,76.20
2018-07-17T09:33:43.416Z,76.60
2018-07-17T09:36:12.865Z,73.40
2018-07-17T09:38:41.983Z,73.60
2018-07-17T09:41:11.205Z,74.30
2018-07-17T09:43:40.360Z,72.60
2018-07-17T09:48:38.367Z,74.00
2018-07-17T09:51:08.124Z,71.90
2018-07-17T09:53:37.350Z,73.50
2018-07-17T09:58:35.862Z,73.20
2018-07-17T10:01:10.422Z,69.70
2018-07-17T10:03:39.661Z,71.50
2018-07-17T10:06:08.838Z,71.50
2018-07-17T10:08:37.948Z,74.50
2018-07-17T10:11:07.111Z,73.30
2018-07-17T10:13:36.236Z,75.70
2018-07-17T10:16:05.472Z,75.00
2018-07-17T10:18:34.645Z,71.40
2018-07-17T10:21:03.793Z,70.70
2018-07-17T10:23:33.743Z,70.70
2018-07-17T10:26:02.880Z,72.80
2018-07-17T10:28:32.058Z,74.90
2018-07-17T10:31:01.185Z,70.60
2018-07-17T10:33:30.348Z,71.70
2018-07-17T10:35:59.616Z,70.70
2018-07-17T10:38:28.824Z,73.20
2018-07-17T10:40:58.056Z,69.70
2018-07-17T10:43:27.263Z,68.30
2018-07-17T10:45:56.443Z,69.90
2018-07-17T10:48:25.897Z,66.70
2018-07-17T10:50:55.096Z,66.60
2018-07-17T10:53:24.271Z,66.10
2018-07-17T10:55:53.404Z,65.10
2018-07-17T10:58:22.502Z,66.70
2018-07-17T11:00:51.693Z,66.70
2018-07-17T11:03:28.383Z,67.30
2018-07-17T11:05:57.578Z,66.70
2018-07-17T11:08:26.777Z,66.50
2018-07-17T11:10:55.910Z,66.20
2018-07-17T11:13:25.132Z,65.30
2018-07-17T11:15:55.088Z,67.50
2018-07-17T11:18:24.192Z,64.30
2018-07-17T11:20:53.408Z,61.40
2018-07-17T11:23:22.563Z,63.00
2018-07-17T11:25:51.810Z,64.50
2018-07-17T11:28:20.948Z,65.50
2018-07-17T11:30:50.136Z,62.80
2018-07-17T11:33:19.316Z,63.70
2018-07-17T11:35:48.439Z,58.90
2018-07-17T11:38:17.639Z,60.40
2018-07-17T11:40:46.835Z,63.60
2018-07-17T11:43:16.112Z,66.00
2018-07-17T11:45:45.324Z,65.80
2018-07-17T11:53:12.660Z,61.30
2018-07-17T11:55:41.949Z,61.70
2018-07-17T11:58:11.091Z,62.00
2018-07-17T12:00:40.284Z,61.10
2018-07-17T12:03:09.563Z,59.00
2018-07-17T12:05:38.769Z,59.80
2018-07-17T12:08:07.910Z,57.60
2018-07-17T12:10:37.805Z,59.20
2018-07-17T12:13:07.011Z,58.70
2018-07-17T12:15:36.184Z,60.00
2018-07-17T12:18:05.552Z,62.10
2018-07-17T12:20:34.874Z,60.50
2018-07-17T12:23:03.928Z,61.50
2018-07-17T12:25:33.112Z,64.50
2018-07-17T12:28:02.599Z,63.90
2018-07-17T12:30:31.793Z,65.70
2018-07-17T12:33:00.988Z,66.50
2018-07-17T12:35:30.203Z,67.20
2018-07-17T12:37:59.385Z,68.70
2018-07-17T12:40:28.593Z,64.90
2018-07-17T12:42:57.779Z,62.70
2018-07-17T12:45:26.955Z,59.60
2018-07-17T12:47:56.088Z,59.30
2018-07-17T12:50:25.746Z,58.90
2018-07-17T12:52:54.965Z,57.80
2018-07-17T12:55:24.198Z,58.40
2018-07-17T12:57:53.424Z,59.20
2018-07-17T13:00:22.564Z,58.30
2018-07-17T13:02:51.777Z,57.40
2018-07-17T13:05:20.946Z,55.30
2018-07-17T13:07:50.173Z,57.30
2018-07-17T13:10:19.425Z,56.00
2018-07-17T13:12:48.579Z,56.50
2018-07-17T13:15:18.017Z,53.90
2018-07-17T13:17:47.214Z,54.20
2018-07-17T13:20:16.387Z,55.60
2018-07-17T13:22:45.652Z,54.50
2018-07-17T13:25:14.813Z,55.10
2018-07-17T13:27:43.980Z,54.40
2018-07-17T13:30:13.177Z,56.00
2018-07-17T13:32:42.938Z,57.10
2018-07-17T13:35:12.093Z,57.30
2018-07-17T13:37:41.265Z,56.50
2018-07-17T13:40:10.775Z,57.40
2018-07-17T13:42:39.964Z,59.80
2018-07-17T13:45:09.123Z,61.10
2018-07-17T13:47:38.432Z,62.10
2018-07-17T13:50:07.662Z,64.60
2018-07-17T13:52:36.880Z,62.80
2018-07-17T13:55:06.797Z,66.10
2018-07-17T13:57:35.944Z,67.80
2018-07-17T14:00:06.513Z,70.00
2018-07-17T14:02:35.561Z,69.00
2018-07-17T14:05:05.105Z,70.20
2018-07-17T14:07:34.190Z,70.10
2018-07-17T14:10:03.490Z,69.90
2018-07-17T14:12:32.688Z,70.10
2018-07-17T14:15:01.898Z,70.20
2018-07-17T14:17:31.130Z,70.00
2018-07-17T14:20:00.184Z,69.30
2018-07-17T14:22:29.440Z,70.10
2018-07-17T14:24:58.672Z,68.30
2018-07-17T14:27:27.997Z,68.10
2018-07-17T14:29:57.210Z,69.40
2018-07-17T14:32:26.429Z,68.20
2018-07-17T14:34:55.689Z,68.80
2018-07-17T14:37:24.993Z,68.80
2018-07-17T14:39:54.186Z,70.40
2018-07-17T14:42:23.364Z,70.80
2018-07-17T14:44:52.505Z,70.00
2018-07-17T14:47:21.779Z,71.10
2018-07-17T14:49:50.948Z,70.40
2018-07-17T14:54:48.855Z,74.30
2018-07-17T14:57:18.152Z,75.00
2018-07-17T14:59:47.699Z,72.90
2018-07-17T15:02:16.906Z,76.10
2018-07-17T15:04:46.122Z,81.10
2018-07-17T15:07:15.260Z,85.30
2018-07-17T15:09:44.512Z,81.20
2018-07-17T15:12:13.678Z,83.50
2018-07-17T15:14:42.884Z,84.40
2018-07-17T15:17:12.035Z,79.00
2018-07-17T15:19:41.288Z,77.90
2018-07-17T15:22:10.472Z,80.20
2018-07-17T15:24:39.680Z,82.80
2018-07-17T15:27:08.942Z,84.20
2018-07-17T15:29:38.128Z,84.40
2018-07-17T15:32:07.416Z,84.10
2018-07-17T15:37:05.926Z,81.50
2018-07-17T15:39:35.126Z,81.60
2018-07-17T15:42:04.338Z,81.00
2018-07-17T15:44:33.607Z,80.30
2018-07-17T15:47:02.759Z,80.10
2018-07-17T15:49:32.729Z,81.40
2018-07-17T15:52:01.954Z,86.40
2018-07-17T15:54:31.272Z,88.20
2018-07-17T15:57:00.527Z,90.10
2018-07-17T15:59:30.419Z,90.50
2018-07-17T16:01:59.666Z,90.70
2018-07-17T16:04:28.978Z,91.00
2018-07-17T16:06:58.161Z,90.60
2018-07-17T16:09:28.031Z,91.00
2018-07-17T16:11:57.265Z,90.10
2018-07-17T16:14:26.740Z,90.30
2018-07-17T16:16:56.354Z,90.50
2018-07-17T16:19:25.619Z,90.20
2018-07-17T16:21:54.802Z,90.60
2018-07-17T16:24:30.705Z,89.90
2018-07-17T16:26:59.931Z,89.60
2018-07-17T16:29:29.895Z,90.10
2018-07-17T16:31:59.702Z,90.50
2018-07-17T16:34:29.114Z,90.80
2018-07-17T16:36:58.601Z,90.90
2018-07-17T16:39:27.745Z,91.80
2018-07-17T16:41:57.487Z,91.90
2018-07-17T16:44:26.700Z,92.00
2018-07-17T16:46:57.412Z,91.30
2018-07-17T16:49:26.678Z,92.00
2018-07-17T16:51:55.827Z,91.70
2018-07-17T16:54:25.548Z,92.10
2018-07-17T16:56:55.634Z,91.80
2018-07-17T16:59:24.752Z,91.90
2018-07-17T17:01:54.039Z,92.50
2018-07-17T17:04:23.682Z,92.60
2018-07-17T17:06:52.975Z,92.60
2018-07-17T17:09:22.221Z,92.00
2018-07-17T17:11:51.418Z,92.30
2018-07-17T17:14:20.587Z,93.30
2018-07-17T17:16:49.773Z,93.20
2018-07-17T17:19:18.932Z,93.00
2018-07-17T17:21:48.759Z,93.70
2018-07-17T17:24:18.083Z,93.60
2018-07-17T17:26:47.302Z,94.90
2018-07-17T17:29:16.438Z,95.40
2018-07-17T17:31:45.733Z,95.90
2018-07-17T17:34:14.925Z,96.30
2018-07-17T17:36:44.780Z,95.10
2018-07-17T17:39:13.890Z,94.30
2018-07-17T17:41:43.016Z,94.10
2018-07-17T17:44:12.264Z,94.20
2018-07-17T17:46:41.365Z,94.00
2018-07-17T17:49:10.567Z,94.80
2018-07-17T17:51:39.777Z,95.10
2018-07-17T17:54:08.957Z,94.60
2018-07-17T17:56:38.146Z,94.50
2018-07-17T17:59:07.380Z,95.20
2018-07-17T18:01:36.631Z,94.10
2018-07-17T18:04:06.164Z,93.50
2018-07-17T18:06:35.296Z,93.40
2018-07-17T18:09:06.122Z,92.90
2018-07-17T18:11:35.530Z,91.90
2018-07-17T18:14:04.756Z,90.90
2018-07-17T18:16:34.015Z,91.10
2018-07-17T18:19:03.226Z,90.80
2018-07-17T18:21:32.425Z,90.60
2018-07-17T18:24:01.652Z,90.90
2018-07-17T18:26:30.959Z,91.00
2018-07-17T18:29:00.304Z,91.60
2018-07-17T18:31:30.387Z,91.70
2018-07-17T18:33:59.563Z,92.60
2018-07-17T18:36:28.912Z,93.30
2018-07-17T18:38:58.053Z,93.60
2018-07-17T18:41:27.304Z,94.00
2018-07-17T18:43:56.442Z,94.90
2018-07-17T18:46:25.605Z,95.40
2018-07-17T18:51:23.626Z,96.20
2018-07-17T18:53:52.923Z,96.60
2018-07-17T18:56:21.961Z,96.90
2018-07-17T18:58:51.111Z,97.10
2018-07-17T19:01:20.314Z,97.30
2018-07-17T19:03:49.453Z,97.50
2018-07-17T19:06:18.608Z,97.70
2018-07-17T19:08:47.697Z,97.90
2018-07-17T19:11:16.983Z,98.10
2018-07-17T19:13:46.118Z,97.80
2018-07-17T19:16:15.298Z,98.40
2018-07-17T19:18:44.505Z,98.50
2018-07-17T19:21:13.728Z,98.80
2018-07-17T19:23:42.964Z,98.70
2018-07-17T19:26:12.092Z,98.70
2018-07-17T19:28:41.281Z,99.00
2018-07-17T19:31:10.460Z,99.00
2018-07-17T19:33:39.616Z,99.10
2018-07-17T19:36:08.765Z,99.30
2018-07-17T19:38:37.985Z,99.40
2018-07-17T19:41:07.134Z,99.80
2018-07-17T19:43:36.357Z,99.90
2018-07-17T19:48:34.262Z,99.90
2018-07-17T19:51:03.467Z,99.90
2018-07-17T19:53:32.640Z,99.90
2018-07-17T19:56:01.909Z,99.90
2018-07-17T19:58:31.079Z,99.90
2018-07-17T20:01:00.218Z,99.90
2018-07-17T20:03:29.371Z,99.90
2018-07-17T20:05:58.485Z,99.90
2018-07-17T20:08:27.717Z,99.90
2018-07-17T20:10:56.843Z,99.90
2018-07-17T20:13:25.952Z,99.90
2018-07-17T20:15:55.097Z,99.90
2018-07-17T20:18:24.236Z,99.90
2018-07-17T20:20:53.337Z,99.90
2018-07-17T20:23:22.555Z,99.90
2018-07-17T20:25:51.680Z,99.90
2018-07-17T20:28:20.880Z,99.90
2018-07-17T20:30:50.148Z,99.90
2018-07-17T20:33:19.298Z,99.90
2018-07-17T20:35:48.431Z,99.90
2018-07-17T20:38:17.728Z,99.90
2018-07-17T20:40:46.906Z,99.90
2018-07-17T20:43:16.075Z,99.90
2018-07-17T20:45:45.329Z,99.90
2018-07-17T20:48:14.498Z,99.90
2018-07-17T20:50:43.631Z,99.90
2018-07-17T20:53:12.834Z,99.90
2018-07-17T20:55:42.495Z,99.90
2018-07-17T20:58:11.627Z,99.90
2018-07-17T21:00:40.780Z,99.90
2018-07-17T21:03:09.974Z,99.90
2018-07-17T21:05:39.176Z,99.90
2018-07-17T21:08:08.456Z,99.90
2018-07-17T21:10:37.616Z,99.90
2018-07-17T21:13:06.786Z,99.90
2018-07-17T21:15:35.875Z,99.90
2018-07-17T21:18:07.948Z,99.90
2018-07-17T21:20:37.120Z,99.90
2018-07-17T21:23:06.311Z,99.90
2018-07-17T21:25:35.559Z,99.90
2018-07-17T21:28:05.031Z,99.90
2018-07-17T21:30:34.186Z,99.90
2018-07-17T21:33:03.446Z,99.90
2018-07-17T21:35:32.713Z,99.90
2018-07-17T21:38:01.877Z,99.90
2018-07-17T21:40:31.166Z,99.90
2018-07-17T21:43:01.008Z,99.90
2018-07-17T21:45:30.163Z,99.90
2018-07-17T21:47:59.289Z,99.90
2018-07-17T21:50:28.451Z,99.90
2018-07-17T21:52:57.596Z,99.90
2018-07-17T21:55:26.795Z,99.90
2018-07-17T21:57:56.024Z,99.90
2018-07-17T22:00:25.810Z,99.90
2018-07-17T22:02:54.924Z,99.90
2018-07-17T22:05:24.137Z,99.90
2018-07-17T22:07:53.259Z,99.90
2018-07-17T22:10:22.439Z,99.90
2018-07-17T22:12:51.516Z,99.90
2018-07-17T22:15:20.731Z,99.90
2018-07-17T22:20:18.480Z,99.90
2018-07-17T22:22:48.018Z,99.90
2018-07-17T22:25:17.225Z,99.90
2018-07-17T22:27:46.380Z,99.90
2018-07-17T22:30:15.540Z,99.90
2018-07-17T22:35:13.492Z,99.90
2018-07-17T22:37:42.594Z,99.90
2018-07-17T22:40:11.743Z,99.90
2018-07-17T22:42:40.895Z,99.90
2018-07-17T22:45:10.053Z,99.90
2018-07-17T22:47:39.190Z,99.90
2018-07-17T22:50:08.432Z,99.90
2018-07-17T22:52:37.589Z,99.90
2018-07-17T22:55:06.925Z,99.90
2018-07-17T22:57:36.591Z,99.90
2018-07-17T23:00:06.837Z,99.90
2018-07-17T23:02:35.998Z,99.90
2018-07-17T23:05:05.203Z,99.90
2018-07-17T23:07:34.339Z,99.90
2018-07-17T23:10:04.284Z,99.90
2018-07-17T23:12:33.476Z,99.90
2018-07-17T23:15:02.727Z,99.90
2018-07-17T23:17:31.879Z,99.90
2018-07-17T23:20:01.098Z,99.90
2018-07-17T23:22:43.327Z,99.90
2018-07-17T23:25:12.554Z,99.90
2018-07-17T23:27:41.645Z,99.90
2018-07-17T23:30:10.771Z,99.90
2018-07-17T23:32:39.896Z,99.90
2018-07-17T23:35:09.056Z,99.90
2018-07-17T23:37:38.175Z,99.90
2018-07-17T23:40:07.296Z,99.90
2018-07-17T23:42:36.463Z,99.90
2018-07-17T23:45:06.161Z,99.90
2018-07-17T23:47:35.312Z,99.90
2018-07-17T23:50:04.564Z,99.90
2018-07-17T23:52:33.724Z,99.90
2018-07-17T23:55:03.141Z,99.90
2018-07-17T23:57:32.649Z,99.90
